Time;durP1;ratioP1;P1;durP2;ratioP2;P2;SDS_P1;SDS_P2;PMS_P1;PMS_P2;Temp;Humidity;BMP_temperature;BMP_pressure;BME280_temperature;BME280_humidity;BME280_pressure;Samples;Min_cycle;Max_cycle;Signal;HPM_P1;HPM_P2
2023/07/14 00:00:08;;;;;;;27.05;9.63;;;;;;;;;;6305558;22;20006;-67
2023/07/14 00:02:37;;;;;;;19.35;9.93;;;;;;;;;;6305263;22;20433;-68
2023/07/14 00:05:04;;;;;;;21.67;9.65;;;;;;;;;;6305973;22;20060;-67
2023/07/14 00:07:30;;;;;;;17.88;9.10;;;;;;;;;;6305736;22;20007;-67
2023/07/14 00:09:55;;;;;;;18.05;9.43;;;;;;;;;;6305653;22;20023;-67
2023/07/14 00:12:21;;;;;;;16.90;9.18;;;;;;;;;;6304688;22;20030;-67
2023/07/14 00:14:47;;;;;;;17.23;9.27;;;;;;;;;;6305394;22;20056;-67
2023/07/14 00:17:13;;;;;;;22.60;9.00;;;;;;;;;;6305344;22;20049;-67
2023/07/14 00:19:39;;;;;;;19.77;8.57;;;;;;;;;;6306180;22;20003;-68
2023/07/14 00:22:14;;;;;;;16.95;9.35;;;;;;;;;;6306068;22;20018;-67
2023/07/14 00:24:44;;;;;;;20.30;9.23;;;;;;;;;;6306000;22;20015;-67
2023/07/14 00:27:18;;;;;;;16.23;9.63;;;;;;;;;;6305916;22;20015;-67
2023/07/14 00:29:46;;;;;;;22.17;9.02;;;;;;;;;;6306029;22;20052;-67
2023/07/14 00:32:20;;;;;;;16.90;8.82;;;;;;;;;;6278583;22;20014;-67
2023/07/14 00:34:46;;;;;;;12.75;8.35;;;;;;;;;;6305727;22;20017;-67
2023/07/14 00:37:13;;;;;;;14.52;9.15;;;;;;;;;;6305884;22;20023;-68
2023/07/14 00:39:40;;;;;;;14.23;8.75;;;;;;;;;;6305805;22;20026;-68
2023/07/14 00:42:11;;;;;;;14.35;8.77;;;;;;;;;;6278224;22;20003;-67
2023/07/14 00:44:37;;;;;;;16.98;8.75;;;;;;;;;;6278507;22;20004;-67
2023/07/14 00:47:08;;;;;;;15.15;8.82;;;;;;;;;;6278377;22;20106;-67
2023/07/14 00:49:36;;;;;;;13.60;8.38;;;;;;;;;;6278788;22;20012;-67
2023/07/14 00:52:14;;;;;;;11.98;8.27;;;;;;;;;;6305613;22;20014;-67
2023/07/14 00:54:46;;;;;;;15.30;8.13;;;;;;;;;;6305333;22;20022;-67
2023/07/14 00:57:16;;;;;;;12.80;8.50;;;;;;;;;;6330417;22;20007;-67
2023/07/14 00:59:43;;;;;;;14.95;8.23;;;;;;;;;;6306218;22;20329;-67
2023/07/14 01:02:11;;;;;;;18.63;8.70;;;;;;;;;;6305967;22;20003;-67
2023/07/14 01:04:45;;;;;;;16.92;9.27;;;;;;;;;;6305210;22;20058;-67
2023/07/14 01:07:14;;;;;;;14.90;9.73;;;;;;;;;;6306222;22;20014;-67
2023/07/14 01:09:42;;;;;;;21.95;10.07;;;;;;;;;;6305118;22;19999;-68
2023/07/14 01:12:10;;;;;;;14.75;9.55;;;;;;;;;;6311415;22;20064;-67
2023/07/14 01:14:40;;;;;;;17.10;9.02;;;;;;;;;;6310912;22;20006;-67
2023/07/14 01:17:07;;;;;;;12.80;9.25;;;;;;;;;;6305885;22;20080;-66
2023/07/14 01:19:51;;;;;;;13.95;9.18;;;;;;;;;;6310239;22;19999;-67
2023/07/14 01:22:19;;;;;;;14.48;8.57;;;;;;;;;;6306104;22;20007;-67
2023/07/14 01:24:55;;;;;;;16.85;8.35;;;;;;;;;;6278156;22;20007;-67
2023/07/14 01:27:24;;;;;;;18.38;8.88;;;;;;;;;;6304046;22;20330;-67
2023/07/14 01:29:52;;;;;;;17.73;10.05;;;;;;;;;;6278428;22;20010;-67
2023/07/14 01:32:21;;;;;;;16.15;7.97;;;;;;;;;;6305876;22;20398;-67
2023/07/14 01:34:47;;;;;;;17.77;8.98;;;;;;;;;;6303971;22;20011;-67
2023/07/14 01:37:17;;;;;;;14.10;8.85;;;;;;;;;;6304139;22;20391;-67
2023/07/14 01:39:43;;;;;;;17.02;8.48;;;;;;;;;;6306224;22;20320;-67
2023/07/14 01:42:09;;;;;;;16.40;9.98;;;;;;;;;;6279217;22;20003;-67
2023/07/14 01:44:36;;;;;;;17.13;9.55;;;;;;;;;;6279368;22;20018;-67
2023/07/14 01:47:02;;;;;;;20.02;9.25;;;;;;;;;;6307462;22;20007;-67
2023/07/14 01:49:46;;;;;;;16.25;9.35;;;;;;;;;;6305959;22;20015;-67
2023/07/14 01:52:17;;;;;;;13.40;9.23;;;;;;;;;;6308229;22;20064;-67
2023/07/14 01:54:48;;;;;;;19.58;9.63;;;;;;;;;;6305042;22;20011;-67
2023/07/14 01:57:18;;;;;;;21.45;9.55;;;;;;;;;;6331662;22;20460;-67
2023/07/14 01:59:47;;;;;;;15.70;9.05;;;;;;;;;;6307424;22;20136;-67
2023/07/14 02:02:33;;;;;;;19.83;9.38;;;;;;;;;;6305821;22;20072;-67
2023/07/14 02:05:06;;;;;;;16.13;9.45;;;;;;;;;;6305488;22;20075;-67
2023/07/14 02:07:32;;;;;;;15.63;9.10;;;;;;;;;;6307431;22;20018;-67
2023/07/14 02:09:58;;;;;;;15.27;8.93;;;;;;;;;;6306456;22;20058;-68
2023/07/14 02:12:31;;;;;;;18.02;8.82;;;;;;;;;;6307358;22;20010;-66
2023/07/14 02:15:02;;;;;;;14.70;8.73;;;;;;;;;;6269049;22;20024;-67
2023/07/14 02:17:33;;;;;;;14.00;8.60;;;;;;;;;;6124248;23;20017;-68
2023/07/14 02:20:06;;;;;;;20.25;9.07;;;;;;;;;;6173116;23;20104;-68
2023/07/14 02:22:33;;;;;;;;;;;;;;;;;;6150798;23;20014;-68
2023/07/14 02:25:00;;;;;;;18.27;9.57;;;;;;;;;;6124532;22;19912;-67
2023/07/14 02:27:26;;;;;;;16.10;8.82;;;;;;;;;;6173674;23;20020;-67
2023/07/14 02:29:52;;;;;;;15.38;8.93;;;;;;;;;;6123952;23;20077;-67
2023/07/14 02:32:29;;;;;;;15.70;8.43;;;;;;;;;;6148867;23;20411;-67
2023/07/14 02:35:01;;;;;;;16.25;8.65;;;;;;;;;;6148889;23;20268;-68
2023/07/14 02:40:43;;;;;;;15.05;8.20;;;;;;;;;;6148691;23;20018;-68
2023/07/14 02:43:12;;;;;;;11.90;7.88;;;;;;;;;;6123833;23;20013;-68
2023/07/14 02:45:49;;;;;;;22.10;9.45;;;;;;;;;;6124536;23;20088;-67
2023/07/14 02:48:23;;;;;;;23.60;10.00;;;;;;;;;;6150465;23;20321;-67
2023/07/14 02:50:48;;;;;;;14.20;7.97;;;;;;;;;;6149512;22;20017;-67
2023/07/14 02:53:16;;;;;;;15.85;8.43;;;;;;;;;;6123573;23;20016;-67
2023/07/14 02:55:42;;;;;;;14.77;8.23;;;;;;;;;;6150839;23;20379;-67
2023/07/14 02:58:08;;;;;;;19.20;9.40;;;;;;;;;;6150496;23;20075;-67
2023/07/14 03:00:34;;;;;;;18.40;8.32;;;;;;;;;;6124358;23;20017;-68
2023/07/14 03:03:01;;;;;;;18.33;9.30;;;;;;;;;;6121379;23;20088;-68
2023/07/14 03:05:26;;;;;;;22.52;8.98;;;;;;;;;;6123184;23;20044;-68
2023/07/14 03:07:52;;;;;;;19.60;9.00;;;;;;;;;;6150214;23;20008;-67
2023/07/14 03:10:20;;;;;;;20.92;8.93;;;;;;;;;;6149570;23;20104;-67
2023/07/14 03:12:46;;;;;;;20.08;9.38;;;;;;;;;;6173253;23;20041;-67
2023/07/14 03:15:11;;;;;;;20.85;9.55;;;;;;;;;;6150754;23;20388;-67
2023/07/14 03:17:37;;;;;;;20.17;9.52;;;;;;;;;;6150295;23;20023;-68
2023/07/14 03:20:04;;;;;;;17.45;8.73;;;;;;;;;;6124295;23;20014;-67
2023/07/14 03:22:30;;;;;;;14.25;8.55;;;;;;;;;;6173673;23;20009;-67
2023/07/14 03:25:02;;;;;;;27.02;9.63;;;;;;;;;;6150400;23;20017;-67
2023/07/14 03:27:28;;;;;;;22.15;10.15;;;;;;;;;;6124241;23;20231;-67
2023/07/14 03:29:55;;;;;;;24.83;8.52;;;;;;;;;;6124538;23;20028;-67
2023/07/14 03:32:21;;;;;;;27.00;10.32;;;;;;;;;;6150303;23;20399;-68
2023/07/14 03:34:46;;;;;;;24.52;9.38;;;;;;;;;;6123493;23;20006;-68
2023/07/14 03:37:12;;;;;;;15.00;8.82;;;;;;;;;;6124260;23;20013;-67
2023/07/14 03:39:38;;;;;;;21.88;9.63;;;;;;;;;;6150073;23;20427;-67
2023/07/14 03:42:04;;;;;;;18.88;9.13;;;;;;;;;;6148654;23;20044;-67
2023/07/14 03:44:32;;;;;;;31.45;10.30;;;;;;;;;;6150028;23;20058;-68
2023/07/14 03:46:58;;;;;;;26.13;10.38;;;;;;;;;;6147967;23;20021;-67
2023/07/14 03:49:24;;;;;;;23.27;9.35;;;;;;;;;;6150419;22;19997;-67
2023/07/14 03:51:51;;;;;;;19.75;9.40;;;;;;;;;;6149998;23;20097;-67
2023/07/14 03:54:17;;;;;;;17.67;9.40;;;;;;;;;;6149905;23;20005;-67
2023/07/14 03:56:44;;;;;;;23.13;8.98;;;;;;;;;;6124195;23;20408;-67
2023/07/14 03:59:10;;;;;;;22.42;8.85;;;;;;;;;;6150334;23;20012;-68
2023/07/14 04:01:36;;;;;;;25.10;9.18;;;;;;;;;;6148617;23;20018;-67
2023/07/14 04:04:02;;;;;;;16.75;9.30;;;;;;;;;;6172456;23;20060;-67
2023/07/14 04:06:30;;;;;;;20.13;10.13;;;;;;;;;;6150351;23;20032;-67
2023/07/14 04:08:59;;;;;;;21.90;9.50;;;;;;;;;;6124157;23;20001;-66
2023/07/14 04:11:25;;;;;;;27.67;10.20;;;;;;;;;;6149968;23;20009;-66
2023/07/14 04:13:50;;;;;;;21.88;9.80;;;;;;;;;;6148253;23;20336;-66
2023/07/14 04:16:16;;;;;;;28.98;10.48;;;;;;;;;;6149139;22;20316;-66
2023/07/14 04:18:42;;;;;;;26.73;11.05;;;;;;;;;;6149514;23;20105;-66
2023/07/14 04:21:10;;;;;;;28.00;9.23;;;;;;;;;;6150079;23;20039;-66
2023/07/14 04:23:36;;;;;;;31.23;10.32;;;;;;;;;;6149365;23;20331;-66
2023/07/14 04:26:02;;;;;;;24.23;9.27;;;;;;;;;;6149966;23;20032;-67
2023/07/14 04:28:28;;;;;;;26.55;10.43;;;;;;;;;;6149557;23;20029;-66
2023/07/14 04:30:56;;;;;;;23.75;10.60;;;;;;;;;;6149868;23;20461;-67
2023/07/14 04:33:22;;;;;;;26.67;10.20;;;;;;;;;;6150290;23;20029;-67
2023/07/14 04:35:52;;;;;;;25.02;11.45;;;;;;;;;;6150506;23;20482;-67
2023/07/14 04:38:19;;;;;;;36.38;12.55;;;;;;;;;;6150707;23;20021;-67
2023/07/14 04:40:45;;;;;;;27.05;10.88;;;;;;;;;;6150405;23;20005;-67
2023/07/14 04:43:12;;;;;;;24.40;9.88;;;;;;;;;;6149774;23;20006;-66
2023/07/14 04:45:39;;;;;;;22.02;9.43;;;;;;;;;;6149681;22;20054;-66
2023/07/14 04:48:07;;;;;;;22.85;10.23;;;;;;;;;;6149419;22;20079;-66
2023/07/14 04:50:34;;;;;;;24.85;10.13;;;;;;;;;;6149507;23;20010;-66
2023/07/14 04:52:59;;;;;;;21.67;9.82;;;;;;;;;;6123762;23;20025;-67
2023/07/14 04:55:28;;;;;;;23.52;9.38;;;;;;;;;;6147915;22;20005;-66
2023/07/14 04:57:54;;;;;;;25.98;10.15;;;;;;;;;;6149201;22;20423;-67
2023/07/14 05:00:23;;;;;;;23.02;10.32;;;;;;;;;;6149475;23;20009;-66
2023/07/14 05:02:48;;;;;;;28.38;11.10;;;;;;;;;;6148010;23;20017;-67
2023/07/14 05:05:18;;;;;;;21.38;11.43;;;;;;;;;;6149315;23;20067;-66
2023/07/14 05:07:44;;;;;;;27.80;11.13;;;;;;;;;;6149385;23;20071;-66
2023/07/14 05:10:10;;;;;;;25.52;11.63;;;;;;;;;;6149586;23;19997;-66
2023/07/14 05:12:36;;;;;;;26.05;11.07;;;;;;;;;;6148584;22;20046;-66
2023/07/14 05:15:04;;;;;;;26.02;10.80;;;;;;;;;;6148556;23;20293;-66
2023/07/14 05:17:30;;;;;;;24.42;11.13;;;;;;;;;;6148837;23;20193;-67
2023/07/14 05:19:56;;;;;;;23.08;10.70;;;;;;;;;;6122754;23;20005;-67
2023/07/14 05:22:22;;;;;;;20.48;9.95;;;;;;;;;;6148993;23;20470;-66
2023/07/14 05:24:47;;;;;;;33.50;12.38;;;;;;;;;;6148701;23;20009;-66
2023/07/14 05:27:13;;;;;;;29.40;10.60;;;;;;;;;;6148001;23;20466;-66
2023/07/14 05:29:39;;;;;;;20.83;9.80;;;;;;;;;;6149044;23;20005;-67
2023/07/14 05:32:05;;;;;;;19.95;9.00;;;;;;;;;;6148582;23;20032;-66
2023/07/14 05:34:30;;;;;;;22.90;8.90;;;;;;;;;;6148323;23;20005;-66
2023/07/14 05:36:56;;;;;;;15.40;9.05;;;;;;;;;;6148165;23;20091;-66
2023/07/14 05:39:22;;;;;;;21.98;9.45;;;;;;;;;;6146174;23;20002;-66
2023/07/14 05:41:47;;;;;;;17.15;9.10;;;;;;;;;;6148208;23;20078;-67
2023/07/14 05:44:14;;;;;;;16.83;9.73;;;;;;;;;;6147794;22;20089;-67
2023/07/14 05:46:40;;;;;;;23.63;9.60;;;;;;;;;;6146958;23;20062;-67
2023/07/14 05:49:06;;;;;;;18.95;9.80;;;;;;;;;;6147151;23;20006;-66
2023/07/14 05:51:31;;;;;;;17.58;9.20;;;;;;;;;;6148949;23;20028;-68
2023/07/14 05:53:57;;;;;;;13.60;9.20;;;;;;;;;;6149192;23;20471;-68
2023/07/14 05:56:23;;;;;;;18.08;9.00;;;;;;;;;;6148854;23;20090;-67
2023/07/14 05:58:48;;;;;;;17.38;9.05;;;;;;;;;;6147793;23;20316;-67
2023/07/14 06:01:14;;;;;;;21.60;9.52;;;;;;;;;;6147906;23;20013;-66
2023/07/14 06:03:41;;;;;;;19.90;9.93;;;;;;;;;;6148408;23;20064;-68
2023/07/14 06:06:07;;;;;;;16.20;8.00;;;;;;;;;;6148386;23;20072;-68
2023/07/14 06:08:33;;;;;;;20.48;8.70;;;;;;;;;;6146417;23;20021;-68
2023/07/14 06:10:59;;;;;;;15.52;9.65;;;;;;;;;;6145034;23;20045;-67
2023/07/14 06:13:24;;;;;;;20.77;8.60;;;;;;;;;;6147526;23;20004;-67
2023/07/14 06:15:51;;;;;;;18.88;9.00;;;;;;;;;;6148187;23;20014;-66
2023/07/14 06:18:17;;;;;;;15.80;8.07;;;;;;;;;;6122046;23;20021;-68
2023/07/14 06:20:44;;;;;;;17.75;8.52;;;;;;;;;;6123285;23;20013;-68
2023/07/14 06:23:10;;;;;;;24.33;8.55;;;;;;;;;;6147429;23;20013;-67
2023/07/14 06:25:36;;;;;;;14.98;8.30;;;;;;;;;;6147902;23;20010;-67
2023/07/14 06:28:02;;;;;;;14.32;8.20;;;;;;;;;;6149722;23;20001;-68
2023/07/14 06:30:27;;;;;;;13.43;7.85;;;;;;;;;;6150042;23;20032;-69
2023/07/14 06:32:53;;;;;;;17.77;8.38;;;;;;;;;;6147021;23;20013;-67
2023/07/14 06:35:19;;;;;;;15.65;7.63;;;;;;;;;;6149225;22;20013;-67
2023/07/14 06:37:45;;;;;;;17.02;8.02;;;;;;;;;;6148186;23;20002;-68
2023/07/14 06:40:11;;;;;;;17.58;7.60;;;;;;;;;;6148762;23;20056;-67
2023/07/14 06:42:37;;;;;;;18.70;8.30;;;;;;;;;;6148948;23;20015;-67
2023/07/14 06:45:03;;;;;;;14.10;7.47;;;;;;;;;;6149491;22;20084;-67
2023/07/14 06:47:30;;;;;;;18.63;8.75;;;;;;;;;;6148216;23;20380;-67
2023/07/14 06:49:56;;;;;;;19.48;8.70;;;;;;;;;;6149629;23;20006;-67
2023/07/14 06:52:22;;;;;;;16.33;8.20;;;;;;;;;;6149129;23;20060;-67
2023/07/14 06:54:48;;;;;;;16.48;8.70;;;;;;;;;;6148094;23;20025;-67
2023/07/14 06:57:14;;;;;;;13.15;7.22;;;;;;;;;;6149336;23;19997;-67
2023/07/14 06:59:41;;;;;;;16.05;7.50;;;;;;;;;;6149634;23;20051;-68
2023/07/14 07:02:10;;;;;;;15.27;7.03;;;;;;;;;;6149147;23;20347;-68
2023/07/14 07:04:36;;;;;;;15.00;7.60;;;;;;;;;;6148842;23;20041;-67
2023/07/14 07:07:02;;;;;;;10.80;7.65;;;;;;;;;;6149641;23;20006;-65
2023/07/14 07:09:28;;;;;;;13.32;8.15;;;;;;;;;;6149055;23;20009;-66
2023/07/14 07:11:54;;;;;;;12.43;7.43;;;;;;;;;;6149094;23;20039;-67
2023/07/14 07:14:19;;;;;;;20.17;7.82;;;;;;;;;;6147268;23;20016;-68
2023/07/14 07:16:45;;;;;;;13.30;7.07;;;;;;;;;;6148592;23;20029;-67
2023/07/14 07:19:11;;;;;;;14.82;7.70;;;;;;;;;;6147669;23;20033;-69
2023/07/14 07:21:37;;;;;;;13.48;7.75;;;;;;;;;;6149001;23;20024;-67
2023/07/14 07:24:04;;;;;;;19.05;8.60;;;;;;;;;;6147512;23;20063;-68
2023/07/14 07:26:30;;;;;;;12.90;7.97;;;;;;;;;;6148284;23;20025;-67
2023/07/14 07:28:56;;;;;;;15.80;7.88;;;;;;;;;;6149632;23;20006;-67
2023/07/14 07:31:22;;;;;;;12.48;7.68;;;;;;;;;;6148406;23;20446;-67
2023/07/14 07:33:48;;;;;;;10.80;7.60;;;;;;;;;;6148142;23;20013;-66
2023/07/14 07:36:15;;;;;;;15.25;7.88;;;;;;;;;;6148529;23;20031;-66
2023/07/14 07:38:50;;;;;;;11.32;7.95;;;;;;;;;;6147583;23;20016;-66
2023/07/14 07:41:17;;;;;;;15.25;8.30;;;;;;;;;;6148864;23;20020;-67
2023/07/14 07:43:44;;;;;;;13.90;8.98;;;;;;;;;;6148519;23;20080;-68
2023/07/14 07:46:10;;;;;;;16.27;7.57;;;;;;;;;;6147148;22;20023;-67
2023/07/14 07:48:36;;;;;;;15.02;7.60;;;;;;;;;;6148685;23;20005;-67
2023/07/14 07:51:05;;;;;;;12.73;7.80;;;;;;;;;;6147110;23;20017;-68
2023/07/14 07:53:32;;;;;;;18.17;7.93;;;;;;;;;;6147605;23;20001;-67
2023/07/14 07:55:59;;;;;;;11.00;8.15;;;;;;;;;;6150023;23;20312;-67
2023/07/14 07:58:25;;;;;;;13.02;8.48;;;;;;;;;;6147545;23;20016;-68
2023/07/14 08:00:56;;;;;;;12.93;8.30;;;;;;;;;;6148701;23;20013;-67
2023/07/14 08:03:22;;;;;;;13.88;8.05;;;;;;;;;;6149066;23;20006;-67
2023/07/14 08:05:48;;;;;;;15.18;8.23;;;;;;;;;;6122495;23;20010;-68
2023/07/14 08:08:14;;;;;;;23.85;8.20;;;;;;;;;;6148326;23;20017;-67
2023/07/14 08:10:45;;;;;;;11.50;8.55;;;;;;;;;;6148954;23;20090;-68
2023/07/14 08:13:13;;;;;;;18.17;7.87;;;;;;;;;;6147468;23;20013;-67
2023/07/14 08:15:39;;;;;;;13.98;8.30;;;;;;;;;;6149100;23;20062;-67
2023/07/14 08:18:07;;;;;;;18.20;8.25;;;;;;;;;;6148755;23;20018;-66
2023/07/14 08:20:37;;;;;;;13.48;8.52;;;;;;;;;;6149604;23;20009;-68
2023/07/14 08:23:04;;;;;;;15.85;8.13;;;;;;;;;;6148493;23;20020;-67
2023/07/14 08:25:30;;;;;;;12.05;7.97;;;;;;;;;;6149136;23;20043;-66
2023/07/14 08:27:56;;;;;;;16.73;8.25;;;;;;;;;;6149373;23;20037;-66
2023/07/14 08:30:22;;;;;;;16.85;8.05;;;;;;;;;;6147883;23;20420;-66
2023/07/14 08:32:49;;;;;;;13.50;7.70;;;;;;;;;;6149012;23;20013;-67
2023/07/14 08:35:17;;;;;;;13.00;7.35;;;;;;;;;;6149720;23;20062;-66
2023/07/14 08:37:43;;;;;;;16.13;7.18;;;;;;;;;;6148410;23;20017;-67
2023/07/14 08:40:14;;;;;;;11.38;7.13;;;;;;;;;;6148250;23;20048;-68
2023/07/14 08:42:46;;;;;;;12.93;8.02;;;;;;;;;;6146658;23;20456;-68
2023/07/14 08:45:37;;;;;;;13.43;7.65;;;;;;;;;;6148805;23;20013;-68
2023/07/14 08:48:15;;;;;;;11.88;7.47;;;;;;;;;;6121642;22;20443;-67
2023/07/14 08:50:46;;;;;;;11.70;6.78;;;;;;;;;;6149521;23;20016;-67
2023/07/14 08:53:21;;;;;;;13.45;7.80;;;;;;;;;;6149494;23;20017;-65
2023/07/14 08:55:47;;;;;;;10.50;7.45;;;;;;;;;;6123551;23;20021;-65
2023/07/14 08:58:21;;;;;;;14.63;7.38;;;;;;;;;;6149184;23;20001;-68
2023/07/14 09:00:50;;;;;;;15.13;7.35;;;;;;;;;;6149154;23;20457;-67
2023/07/14 09:03:24;;;;;;;15.93;7.95;;;;;;;;;;6148761;23;20001;-66
2023/07/14 09:05:55;;;;;;;16.13;7.43;;;;;;;;;;6149203;23;20013;-67
2023/07/14 09:08:27;;;;;;;11.80;7.60;;;;;;;;;;6148841;23;20014;-66
2023/07/14 09:10:53;;;;;;;;;;;;;;;;;;6149698;23;20066;-66
2023/07/14 09:13:38;;;;;;;12.90;6.55;;;;;;;;;;6149102;23;19939;-67
2023/07/14 09:16:07;;;;;;;9.98;7.13;;;;;;;;;;6149131;23;20010;-67
2023/07/14 09:18:55;;;;;;;14.45;7.45;;;;;;;;;;6149126;23;20013;-66
2023/07/14 09:21:36;;;;;;;13.98;7.60;;;;;;;;;;6148724;23;20012;-66
2023/07/14 09:24:33;;;;;;;14.90;7.15;;;;;;;;;;6149462;23;20017;-67
2023/07/14 09:26:59;;;;;;;11.95;7.10;;;;;;;;;;6149258;23;20443;-66
2023/07/14 09:29:38;;;;;;;16.55;7.22;;;;;;;;;;6149629;23;20064;-66
2023/07/14 09:32:32;;;;;;;14.48;6.95;;;;;;;;;;6148434;23;20009;-67
2023/07/14 09:35:04;;;;;;;11.15;6.85;;;;;;;;;;6149013;23;20037;-67
2023/07/14 09:37:41;;;;;;;14.07;7.10;;;;;;;;;;6149217;23;20020;-68
2023/07/14 09:40:19;;;;;;;16.70;6.85;;;;;;;;;;6123114;23;20005;-67
2023/07/14 09:42:52;;;;;;;15.40;6.97;;;;;;;;;;6148204;23;20470;-67
2023/07/14 09:45:29;;;;;;;14.90;7.32;;;;;;;;;;6148642;23;20063;-66
2023/07/14 09:48:16;;;;;;;15.77;7.78;;;;;;;;;;6148666;23;20375;-67
2023/07/14 09:51:01;;;;;;;14.23;6.85;;;;;;;;;;6147991;23;20018;-67
2023/07/14 09:53:28;;;;;;;13.05;6.72;;;;;;;;;;6148408;23;20013;-67
2023/07/14 09:56:01;;;;;;;10.45;6.97;;;;;;;;;;6148558;23;20003;-66
2023/07/14 09:58:30;;;;;;;13.60;7.63;;;;;;;;;;6148954;22;20014;-68
2023/07/14 10:00:59;;;;;;;13.93;5.97;;;;;;;;;;6148800;23;20002;-67
2023/07/14 10:03:31;;;;;;;12.88;6.22;;;;;;;;;;6149300;23;20065;-66
2023/07/14 10:06:05;;;;;;;13.05;6.68;;;;;;;;;;6150328;23;20503;-66
2023/07/14 10:08:35;;;;;;;17.08;6.78;;;;;;;;;;6150011;23;20168;-68
2023/07/14 10:11:22;;;;;;;10.50;6.18;;;;;;;;;;6150271;23;20336;-67
2023/07/14 10:14:14;;;;;;;12.25;6.38;;;;;;;;;;6149358;23;20017;-68
2023/07/14 10:16:44;;;;;;;12.32;6.82;;;;;;;;;;6149676;22;20017;-66
2023/07/14 10:19:18;;;;;;;12.57;6.38;;;;;;;;;;6149908;23;20335;-66
2023/07/14 10:21:57;;;;;;;13.70;6.70;;;;;;;;;;6149657;23;20009;-65
2023/07/14 10:24:24;;;;;;;14.82;6.72;;;;;;;;;;6149921;23;20017;-67
2023/07/14 10:26:52;;;;;;;12.85;6.22;;;;;;;;;;6148384;23;20058;-67
2023/07/14 10:29:23;;;;;;;11.82;5.82;;;;;;;;;;6149603;23;20455;-66
2023/07/14 10:32:09;;;;;;;16.83;6.47;;;;;;;;;;6146173;23;20017;-66
2023/07/14 10:34:57;;;;;;;15.30;7.00;;;;;;;;;;6147948;23;20013;-66
2023/07/14 10:37:27;;;;;;;16.50;6.43;;;;;;;;;;6145040;23;20355;-67
2023/07/14 10:40:10;;;;;;;13.77;6.40;;;;;;;;;;6147935;23;20021;-68
2023/07/14 10:42:41;;;;;;;15.13;6.47;;;;;;;;;;6149710;23;20005;-68
2023/07/14 10:45:13;;;;;;;10.63;6.38;;;;;;;;;;6148888;23;20014;-67
2023/07/14 10:47:56;;;;;;;15.27;7.13;;;;;;;;;;6146724;23;20074;-67
2023/07/14 10:50:40;;;;;;;14.50;6.45;;;;;;;;;;6149897;23;20296;-68
2023/07/14 10:53:22;;;;;;;9.73;5.60;;;;;;;;;;6146020;23;20017;-67
2023/07/14 10:55:52;;;;;;;18.40;6.37;;;;;;;;;;6148823;23;20469;-67
2023/07/14 10:58:25;;;;;;;12.10;5.45;;;;;;;;;;6146867;23;20013;-67
2023/07/14 11:00:56;;;;;;;15.02;5.55;;;;;;;;;;6149871;23;20009;-68
2023/07/14 11:03:35;;;;;;;21.80;6.50;;;;;;;;;;6148581;23;20009;-68
2023/07/14 11:06:19;;;;;;;13.98;5.80;;;;;;;;;;6149614;23;20014;-68
2023/07/14 11:08:53;;;;;;;16.25;5.90;;;;;;;;;;6149568;23;20376;-68
2023/07/14 11:11:25;;;;;;;18.08;5.85;;;;;;;;;;6147968;23;20033;-67
2023/07/14 11:14:25;;;;;;;14.20;5.32;;;;;;;;;;6149552;23;20453;-67
2023/07/14 11:17:03;;;;;;;12.23;6.93;;;;;;;;;;6149684;23;20014;-67
2023/07/14 11:19:58;;;;;;;18.42;6.18;;;;;;;;;;6148865;23;20022;-67
2023/07/14 11:23:01;;;;;;;14.13;5.97;;;;;;;;;;6148831;23;20017;-68
2023/07/14 11:25:50;;;;;;;13.13;5.25;;;;;;;;;;6148639;23;20307;-68
2023/07/14 11:28:28;;;;;;;15.55;5.28;;;;;;;;;;6131130;23;20010;-67
2023/07/14 11:30:58;;;;;;;16.73;5.78;;;;;;;;;;6150618;23;20089;-68
2023/07/14 11:33:38;;;;;;;21.40;5.32;;;;;;;;;;6150154;23;20390;-68
2023/07/14 11:36:11;;;;;;;16.02;5.18;;;;;;;;;;6149929;23;20435;-67
2023/07/14 11:39:01;;;;;;;11.02;4.85;;;;;;;;;;6150248;23;20020;-69
2023/07/14 11:41:27;;;;;;;12.50;5.30;;;;;;;;;;6150461;23;20045;-67
2023/07/14 11:43:54;;;;;;;12.10;4.45;;;;;;;;;;6150029;23;20001;-68
2023/07/14 11:46:24;;;;;;;16.48;5.28;;;;;;;;;;6150656;23;20108;-68
2023/07/14 11:48:53;;;;;;;10.95;5.30;;;;;;;;;;6150409;23;20529;-67
2023/07/14 11:51:21;;;;;;;13.90;4.97;;;;;;;;;;6149931;23;20012;-67
2023/07/14 11:54:23;;;;;;;15.48;5.35;;;;;;;;;;6150049;23;20064;-70
2023/07/14 11:57:06;;;;;;;13.73;5.53;;;;;;;;;;6181467;23;20024;-68
2023/07/14 11:59:36;;;;;;;13.25;4.60;;;;;;;;;;6150093;23;20443;-68
2023/07/14 12:02:27;;;;;;;12.50;4.55;;;;;;;;;;6150102;23;20419;-68
2023/07/14 12:05:30;;;;;;;14.23;5.10;;;;;;;;;;6149902;23;20009;-68
2023/07/14 12:08:02;;;;;;;13.70;5.15;;;;;;;;;;6150253;23;20347;-67
2023/07/14 12:10:43;;;;;;;10.75;4.30;;;;;;;;;;6124077;23;20098;-67
2023/07/14 12:13:22;;;;;;;17.02;5.03;;;;;;;;;;6149658;23;20025;-67
2023/07/14 12:15:54;;;;;;;17.33;5.07;;;;;;;;;;6150335;23;20443;-67
2023/07/14 12:18:59;;;;;;;15.07;5.22;;;;;;;;;;6150299;23;20018;-67
2023/07/14 12:21:33;;;;;;;16.90;5.03;;;;;;;;;;6167901;23;20148;-69
2023/07/14 12:24:18;;;;;;;14.10;4.45;;;;;;;;;;6149670;23;20048;-68
2023/07/14 12:26:53;;;;;;;9.95;4.70;;;;;;;;;;6150066;23;20040;-67
2023/07/14 12:29:21;;;;;;;20.75;5.43;;;;;;;;;;6149095;23;20005;-66
2023/07/14 12:31:55;;;;;;;14.90;4.75;;;;;;;;;;6149646;23;20032;-68
2023/07/14 12:34:24;;;;;;;14.75;4.85;;;;;;;;;;6149105;22;20017;-68
2023/07/14 12:36:51;;;;;;;16.42;5.13;;;;;;;;;;6149874;23;20009;-68
2023/07/14 12:39:16;;;;;;;10.85;5.20;;;;;;;;;;6148682;22;20027;-68
2023/07/14 12:41:49;;;;;;;10.77;5.63;;;;;;;;;;6149285;23;20032;-69
2023/07/14 12:44:25;;;;;;;14.57;6.40;;;;;;;;;;6149648;23;20099;-68
2023/07/14 12:46:54;;;;;;;14.80;5.70;;;;;;;;;;6148907;22;20013;-68
2023/07/14 12:49:22;;;;;;;11.45;4.97;;;;;;;;;;6149455;23;20006;-68
2023/07/14 12:51:49;;;;;;;14.18;5.38;;;;;;;;;;6149295;23;20040;-68
2023/07/14 12:54:19;;;;;;;11.68;5.45;;;;;;;;;;6148953;23;20388;-68
2023/07/14 12:56:45;;;;;;;11.63;5.55;;;;;;;;;;6149925;23;20538;-68
2023/07/14 12:59:15;;;;;;;10.30;5.40;;;;;;;;;;6149185;23;20086;-68
2023/07/14 13:01:45;;;;;;;9.68;5.93;;;;;;;;;;6149389;23;20044;-68
2023/07/14 13:04:12;;;;;;;12.18;5.72;;;;;;;;;;6149465;23;20010;-67
2023/07/14 13:06:40;;;;;;;15.15;5.75;;;;;;;;;;6148886;23;20008;-68
2023/07/14 13:09:19;;;;;;;14.98;5.85;;;;;;;;;;6149182;23;20005;-67
2023/07/14 13:11:47;;;;;;;10.63;5.55;;;;;;;;;;6149552;23;20013;-68
2023/07/14 13:14:21;;;;;;;10.55;5.70;;;;;;;;;;6149225;23;20008;-67
2023/07/14 13:16:47;;;;;;;10.57;5.63;;;;;;;;;;6149127;23;20016;-68
2023/07/14 13:19:37;;;;;;;10.82;5.75;;;;;;;;;;6149081;23;20095;-68
2023/07/14 13:22:04;;;;;;;9.68;5.43;;;;;;;;;;6148095;23;20025;-68
2023/07/14 13:24:32;;;;;;;9.95;5.53;;;;;;;;;;6148826;23;20009;-68
2023/07/14 13:27:08;;;;;;;14.13;5.50;;;;;;;;;;6147225;23;20508;-67
2023/07/14 13:29:35;;;;;;;11.93;5.50;;;;;;;;;;6149015;23;20005;-68
2023/07/14 13:32:24;;;;;;;15.25;5.60;;;;;;;;;;6148551;23;20376;-68
2023/07/14 13:34:53;;;;;;;9.77;5.53;;;;;;;;;;6148036;23;20036;-66
2023/07/14 13:37:19;;;;;;;11.52;5.90;;;;;;;;;;6148762;22;20009;-68
2023/07/14 13:39:54;;;;;;;14.13;5.40;;;;;;;;;;6150392;23;20014;-68
2023/07/14 13:42:34;;;;;;;10.27;5.40;;;;;;;;;;6148993;23;20494;-69
2023/07/14 13:45:07;;;;;;;12.45;5.70;;;;;;;;;;6149081;23;20021;-68
2023/07/14 13:47:50;;;;;;;11.27;5.53;;;;;;;;;;6150457;23;20032;-69
2023/07/14 13:50:16;;;;;;;15.20;5.72;;;;;;;;;;6150470;23;20036;-68
2023/07/14 13:52:41;;;;;;;12.75;5.65;;;;;;;;;;6150787;23;20002;-69
2023/07/14 13:55:16;;;;;;;15.55;5.68;;;;;;;;;;6150550;23;20386;-68
2023/07/14 14:01:28;;;;;;;9.00;4.72;;;;;;;;;;6149718;23;20477;-68
2023/07/14 14:03:55;;;;;;;12.10;4.90;;;;;;;;;;6150853;23;20282;-68
2023/07/14 14:06:21;;;;;;;7.80;5.03;;;;;;;;;;6151030;23;20382;-68
2023/07/14 14:08:47;;;;;;;14.05;5.65;;;;;;;;;;6150346;23;20002;-70
2023/07/14 14:11:14;;;;;;;12.00;5.13;;;;;;;;;;6150812;23;20083;-68
2023/07/14 14:13:41;;;;;;;12.98;5.07;;;;;;;;;;6150589;23;20009;-68
2023/07/14 14:16:14;;;;;;;14.25;5.80;;;;;;;;;;6150741;22;20024;-69
2023/07/14 14:22:27;;;;;;;11.98;5.00;;;;;;;;;;6150199;23;20036;-68
2023/07/14 14:24:53;;;;;;;12.13;5.43;;;;;;;;;;6149178;23;20428;-67
2023/07/14 14:27:19;;;;;;;14.55;5.88;;;;;;;;;;6149814;23;20037;-67
2023/07/14 14:33:38;;;;;;;10.13;5.22;;;;;;;;;;6148543;23;20335;-68
2023/07/14 14:36:05;;;;;;;11.48;5.72;;;;;;;;;;6149324;23;20006;-68
2023/07/14 14:38:32;;;;;;;9.90;5.35;;;;;;;;;;6149723;23;20009;-68
2023/07/14 14:41:01;;;;;;;11.02;5.43;;;;;;;;;;6149849;23;20009;-68
2023/07/14 14:43:29;;;;;;;17.27;5.13;;;;;;;;;;6149868;23;20002;-68
2023/07/14 14:45:58;;;;;;;13.75;5.50;;;;;;;;;;6149647;23;20017;-68
2023/07/14 14:48:29;;;;;;;14.00;4.85;;;;;;;;;;6148306;22;20055;-67
2023/07/14 14:58:30;;;;;;;15.73;5.22;;;;;;;;;;6149389;23;20096;-68
2023/07/14 15:04:43;;;;;;;13.98;4.68;;;;;;;;;;6148952;23;20052;-69
2023/07/14 15:07:12;;;;;;;12.02;4.72;;;;;;;;;;6149759;23;20013;-67
2023/07/14 15:09:41;;;;;;;12.85;4.70;;;;;;;;;;6150553;23;20005;-68
2023/07/14 15:12:14;;;;;;;13.57;4.97;;;;;;;;;;6124046;23;20344;-68
2023/07/14 15:14:43;;;;;;;14.13;5.18;;;;;;;;;;6149678;23;20041;-67